createdAt,value
2023-03-23T16:00:21.710Z,16.72
2023-03-23T16:05:24.095Z,16.48
2023-03-23T16:10:26.801Z,16.39
2023-03-23T16:15:26.331Z,16.19
2023-03-23T16:20:46.255Z,15.95
2023-03-23T16:25:55.594Z,15.87
2023-03-23T16:30:54.450Z,15.63
2023-03-23T16:35:57.667Z,15.43
2023-03-23T16:40:58.800Z,15.31
2023-03-23T16:46:01.223Z,15.13
2023-03-23T16:51:02.824Z,15.13
2023-03-23T16:56:12.583Z,14.99
2023-03-23T17:01:18.264Z,14.90
2023-03-23T17:06:17.480Z,14.74
2023-03-23T17:11:17.072Z,14.66
2023-03-23T17:16:18.614Z,14.58
2023-03-23T17:21:17.353Z,14.43
2023-03-23T17:26:33.066Z,14.36
2023-03-23T17:31:38.506Z,14.24
2023-03-23T17:36:39.908Z,14.15
2023-03-23T17:41:40.387Z,14.16
2023-03-23T17:46:43.813Z,14.13
2023-03-23T17:51:43.981Z,14.05
2023-03-23T17:56:44.833Z,13.84
2023-03-23T18:01:44.888Z,13.94
2023-03-23T18:06:46.574Z,13.95
2023-03-23T18:11:47.680Z,13.91
2023-03-23T18:16:52.613Z,13.92
2023-03-23T18:21:52.235Z,13.97
2023-03-23T18:26:54.623Z,13.53
2023-03-23T18:31:53.450Z,13.69
2023-03-23T18:36:52.481Z,13.56
2023-03-23T18:41:53.515Z,13.65
2023-03-23T18:46:52.727Z,13.25
2023-03-23T18:51:54.049Z,13.07
2023-03-23T18:57:00.129Z,12.95
2023-03-23T19:02:15.396Z,12.90
2023-03-23T19:07:34.189Z,13.16
2023-03-23T19:12:35.124Z,13.11
2023-03-23T19:17:40.534Z,13.03
2023-03-23T19:22:49.008Z,12.80
2023-03-23T19:33:08.526Z,12.54
2023-03-23T19:38:09.362Z,12.51
2023-03-23T19:43:11.264Z,12.36
2023-03-23T19:53:57.461Z,12.29
2023-03-23T19:59:00.213Z,12.16
2023-03-23T20:04:13.721Z,12.30
2023-03-23T20:09:18.196Z,12.27
2023-03-23T20:14:25.688Z,12.13
2023-03-23T20:19:29.384Z,12.18
2023-03-23T20:24:31.803Z,12.04
2023-03-23T20:29:37.043Z,11.81
2023-03-23T20:34:46.086Z,11.91
2023-03-23T20:39:49.104Z,11.86
2023-03-23T20:44:49.057Z,11.90
2023-03-23T20:49:52.633Z,11.66
2023-03-23T20:55:09.525Z,11.59
2023-03-23T21:00:16.429Z,11.51
2023-03-23T21:05:40.300Z,11.65
2023-03-23T21:16:29.392Z,11.61
2023-03-23T21:21:35.220Z,11.57
2023-03-23T21:26:38.674Z,11.20
2023-03-23T21:31:37.103Z,11.26
2023-03-23T21:36:38.897Z,11.55
2023-03-23T21:41:42.009Z,11.31
2023-03-23T21:46:42.206Z,11.11
2023-03-23T21:51:43.831Z,11.41
2023-03-23T21:56:48.991Z,11.35
2023-03-23T22:01:49.886Z,11.27
2023-03-23T22:06:52.016Z,11.31
2023-03-23T22:11:53.312Z,11.28
2023-03-23T22:16:51.778Z,11.55
2023-03-23T22:21:50.644Z,11.28
2023-03-23T22:26:51.885Z,11.41
2023-03-23T22:31:53.327Z,11.35
2023-03-23T22:36:52.580Z,11.19
2023-03-23T22:41:55.345Z,11.21
2023-03-23T22:46:56.253Z,11.11
2023-03-23T22:51:53.746Z,11.11
2023-03-23T22:56:53.614Z,11.31
2023-03-23T23:01:57.534Z,11.01
2023-03-23T23:07:03.179Z,11.09
2023-03-23T23:12:17.114Z,10.96
2023-03-23T23:17:15.688Z,10.93
2023-03-23T23:22:19.445Z,10.77
2023-03-23T23:27:18.355Z,10.74
2023-03-23T23:32:19.187Z,10.72
2023-03-23T23:37:21.141Z,10.42
2023-03-23T23:42:22.522Z,10.55
2023-03-23T23:47:25.105Z,10.54
2023-03-23T23:52:25.694Z,10.52
2023-03-23T23:57:27.189Z,10.57
